sensor_id;sensor_type;location;lat;lon;timestamp;P1;durP1;ratioP1;P2;durP2;ratioP2
47381;SDS011;33128;51.580;5.170;2023-05-07T00:02:25;603.60;;;552.13;;
47381;SDS011;33128;51.580;5.170;2023-05-07T00:04:50;560.97;;;521.70;;
47381;SDS011;33128;51.580;5.170;2023-05-07T00:07:19;588.38;;;545.47;;
47381;SDS011;33128;51.580;5.170;2023-05-07T00:09:44;721.60;;;670.30;;
47381;SDS011;33128;51.580;5.170;2023-05-07T00:12:10;429.83;;;399.50;;
47381;SDS011;33128;51.580;5.170;2023-05-07T00:14:36;681.75;;;632.92;;
47381;SDS011;33128;51.580;5.170;2023-05-07T00:17:01;657.47;;;600.28;;
47381;SDS011;33128;51.580;5.170;2023-05-07T00:19:27;482.02;;;446.38;;
47381;SDS011;33128;51.580;5.170;2023-05-07T00:21:52;275.70;;;256.58;;
47381;SDS011;33128;51.580;5.170;2023-05-07T00:24:19;502.65;;;466.05;;
47381;SDS011;33128;51.580;5.170;2023-05-07T00:26:44;746.60;;;692.75;;
47381;SDS011;33128;51.580;5.170;2023-05-07T00:29:10;747.78;;;694.03;;
47381;SDS011;33128;51.580;5.170;2023-05-07T00:31:35;709.33;;;657.70;;
47381;SDS011;33128;51.580;5.170;2023-05-07T00:34:01;488.05;;;452.98;;
47381;SDS011;33128;51.580;5.170;2023-05-07T00:36:27;601.55;;;546.97;;
47381;SDS011;33128;51.580;5.170;2023-05-07T00:38:53;690.38;;;635.92;;
47381;SDS011;33128;51.580;5.170;2023-05-07T00:41:20;702.22;;;651.38;;
47381;SDS011;33128;51.580;5.170;2023-05-07T00:43:46;519.60;;;482.17;;
47381;SDS011;33128;51.580;5.170;2023-05-07T00:46:12;640.63;;;583.17;;
47381;SDS011;33128;51.580;5.170;2023-05-07T00:48:39;538.50;;;500.88;;
47381;SDS011;33128;51.580;5.170;2023-05-07T00:51:05;505.67;;;469.95;;
47381;SDS011;33128;51.580;5.170;2023-05-07T00:53:32;583.28;;;541.65;;
47381;SDS011;33128;51.580;5.170;2023-05-07T00:55:57;655.95;;;609.55;;
47381;SDS011;33128;51.580;5.170;2023-05-07T00:58:23;603.97;;;558.15;;
47381;SDS011;33128;51.580;5.170;2023-05-07T01:00:49;561.40;;;521.38;;
47381;SDS011;33128;51.580;5.170;2023-05-07T01:03:15;542.35;;;503.98;;
47381;SDS011;33128;51.580;5.170;2023-05-07T01:05:44;554.72;;;516.13;;
47381;SDS011;33128;51.580;5.170;2023-05-07T01:08:15;456.58;;;421.90;;
47381;SDS011;33128;51.580;5.170;2023-05-07T01:10:41;716.25;;;665.28;;
47381;SDS011;33128;51.580;5.170;2023-05-07T01:13:09;741.47;;;688.78;;
47381;SDS011;33128;51.580;5.170;2023-05-07T01:15:36;607.78;;;554.75;;
47381;SDS011;33128;51.580;5.170;2023-05-07T01:18:02;742.95;;;691.97;;
47381;SDS011;33128;51.580;5.170;2023-05-07T01:20:28;441.17;;;409.58;;
47381;SDS011;33128;51.580;5.170;2023-05-07T01:22:54;681.95;;;632.75;;
47381;SDS011;33128;51.580;5.170;2023-05-07T01:25:22;599.00;;;555.85;;
47381;SDS011;33128;51.580;5.170;2023-05-07T01:27:48;684.38;;;632.40;;
47381;SDS011;33128;51.580;5.170;2023-05-07T01:30:14;480.75;;;446.73;;
47381;SDS011;33128;51.580;5.170;2023-05-07T01:32:41;479.58;;;445.88;;
47381;SDS011;33128;51.580;5.170;2023-05-07T01:35:13;751.28;;;698.50;;
47381;SDS011;33128;51.580;5.170;2023-05-07T01:37:43;447.33;;;416.08;;
47381;SDS011;33128;51.580;5.170;2023-05-07T01:40:09;420.73;;;387.08;;
47381;SDS011;33128;51.580;5.170;2023-05-07T01:42:35;689.05;;;639.92;;
47381;SDS011;33128;51.580;5.170;2023-05-07T01:45:01;711.20;;;661.67;;
47381;SDS011;33128;51.580;5.170;2023-05-07T01:47:27;456.60;;;424.38;;
47381;SDS011;33128;51.580;5.170;2023-05-07T01:49:54;560.17;;;521.13;;
47381;SDS011;33128;51.580;5.170;2023-05-07T01:52:20;530.92;;;493.52;;
47381;SDS011;33128;51.580;5.170;2023-05-07T01:54:46;437.08;;;407.23;;
47381;SDS011;33128;51.580;5.170;2023-05-07T01:57:12;551.08;;;511.77;;
47381;SDS011;33128;51.580;5.170;2023-05-07T01:59:37;525.70;;;489.38;;
47381;SDS011;33128;51.580;5.170;2023-05-07T02:02:03;510.52;;;474.98;;
47381;SDS011;33128;51.580;5.170;2023-05-07T02:04:28;378.40;;;351.98;;
47381;SDS011;33128;51.580;5.170;2023-05-07T02:06:54;636.03;;;593.13;;
47381;SDS011;33128;51.580;5.170;2023-05-07T02:09:20;268.58;;;249.52;;
47381;SDS011;33128;51.580;5.170;2023-05-07T02:11:47;692.42;;;645.10;;
47381;SDS011;33128;51.580;5.170;2023-05-07T02:14:13;606.38;;;556.28;;
47381;SDS011;33128;51.580;5.170;2023-05-07T02:16:39;591.47;;;543.40;;
47381;SDS011;33128;51.580;5.170;2023-05-07T02:19:04;641.92;;;598.22;;
47381;SDS011;33128;51.580;5.170;2023-05-07T02:21:30;616.55;;;564.25;;
47381;SDS011;33128;51.580;5.170;2023-05-07T02:23:56;614.47;;;562.28;;
47381;SDS011;33128;51.580;5.170;2023-05-07T02:26:23;394.30;;;366.73;;
47381;SDS011;33128;51.580;5.170;2023-05-07T02:28:48;507.58;;;472.55;;
47381;SDS011;33128;51.580;5.170;2023-05-07T02:31:14;309.05;;;288.13;;
47381;SDS011;33128;51.580;5.170;2023-05-07T02:33:40;558.10;;;519.25;;
47381;SDS011;33128;51.580;5.170;2023-05-07T02:36:09;408.20;;;378.27;;
47381;SDS011;33128;51.580;5.170;2023-05-07T02:38:35;415.48;;;386.67;;
47381;SDS011;33128;51.580;5.170;2023-05-07T02:41:04;603.78;;;553.95;;
47381;SDS011;33128;51.580;5.170;2023-05-07T02:43:30;463.73;;;431.38;;
47381;SDS011;33128;51.580;5.170;2023-05-07T02:46:02;480.77;;;446.00;;
47381;SDS011;33128;51.580;5.170;2023-05-07T02:48:31;372.35;;;346.60;;
47381;SDS011;33128;51.580;5.170;2023-05-07T23:00:44;97.87;;;91.27;;
47381;SDS011;33128;51.580;5.170;2023-05-07T23:03:11;25.25;;;23.65;;
47381;SDS011;33128;51.580;5.170;2023-05-07T23:05:36;26.75;;;25.20;;
47381;SDS011;33128;51.580;5.170;2023-05-07T23:08:02;26.38;;;24.77;;
47381;SDS011;33128;51.580;5.170;2023-05-07T23:10:28;150.93;;;138.27;;
47381;SDS011;33128;51.580;5.170;2023-05-07T23:12:55;104.22;;;96.07;;
47381;SDS011;33128;51.580;5.170;2023-05-07T23:15:21;26.08;;;24.48;;
47381;SDS011;33128;51.580;5.170;2023-05-07T23:17:47;27.75;;;26.13;;
47381;SDS011;33128;51.580;5.170;2023-05-07T23:20:12;34.90;;;32.45;;
47381;SDS011;33128;51.580;5.170;2023-05-07T23:22:41;28.90;;;27.15;;
47381;SDS011;33128;51.580;5.170;2023-05-07T23:25:07;28.40;;;26.63;;
47381;SDS011;33128;51.580;5.170;2023-05-07T23:27:33;38.47;;;36.00;;
47381;SDS011;33128;51.580;5.170;2023-05-07T23:29:59;28.00;;;26.10;;
47381;SDS011;33128;51.580;5.170;2023-05-07T23:32:24;33.85;;;31.35;;
47381;SDS011;33128;51.580;5.170;2023-05-07T23:34:54;27.70;;;25.73;;
47381;SDS011;33128;51.580;5.170;2023-05-07T23:37:21;40.15;;;35.95;;
47381;SDS011;33128;51.580;5.170;2023-05-07T23:39:51;26.70;;;25.17;;
47381;SDS011;33128;51.580;5.170;2023-05-07T23:42:18;30.30;;;28.45;;
47381;SDS011;33128;51.580;5.170;2023-05-07T23:44:43;29.02;;;27.13;;
47381;SDS011;33128;51.580;5.170;2023-05-07T23:47:09;28.73;;;26.65;;
47381;SDS011;33128;51.580;5.170;2023-05-07T23:49:34;27.15;;;25.52;;
47381;SDS011;33128;51.580;5.170;2023-05-07T23:52:00;27.90;;;26.27;;
47381;SDS011;33128;51.580;5.170;2023-05-07T23:54:26;27.80;;;25.88;;
47381;SDS011;33128;51.580;5.170;2023-05-07T23:56:52;27.60;;;25.80;;
47381;SDS011;33128;51.580;5.170;2023-05-07T23:59:17;27.92;;;26.27;;
